Airport View

Enter AWOS ICAO identifier for current METAR.

ex. KFNL

KFRH 080635Z AUTO 02003KT 10SM CLR 15/13 A3018 RMK AO1

8 Aug 2020 06:44

Frequency: 118.075

Phone: 812-936-2252

Other Area AWOS: KHNB - KDCY - KKY8 - KBMG

TAF KBMG 080520Z 0806/0906 00000KT P6SM FEW250 FM081000 00000KT 6SM BR BCFG FEW250 FM081300 19005KT P6SM FEW050 AMD LTD TO CLD VIS AND WIND TIL 081300